Time;durP1;ratioP1;P1;durP2;ratioP2;P2;SDS_P1;SDS_P2;PMS_P1;PMS_P2;Temp;Humidity;BMP_temperature;BMP_pressure;BME280_temperature;BME280_humidity;BME280_pressure;Samples;Min_cycle;Max_cycle;Signal;HPM_P1;HPM_P2
2022/07/20 00:00:23;;;;;;;2.23;2.03;;;20.90;62.90;;;;;;5039404;28;20201;-67
2022/07/20 00:02:49;;;;;;;2.90;2.30;;;20.90;63.20;;;;;;5033499;28;20206;-67
2022/07/20 00:05:15;;;;;;;2.87;2.43;;;20.80;63.30;;;;;;5022028;28;20210;-67
2022/07/20 00:07:40;;;;;;;2.80;2.60;;;20.80;63.20;;;;;;5057367;28;20217;-67
2022/07/20 00:12:51;;;;;;;3.07;2.50;;;20.80;63.50;;;;;;5029865;28;20220;-67
2022/07/20 00:15:16;;;;;;;2.50;2.30;;;20.80;63.70;;;;;;5034085;28;20199;-67
2022/07/20 00:17:42;;;;;;;2.67;2.10;;;20.70;63.70;;;;;;5024201;28;20259;-67
2022/07/20 00:20:10;;;;;;;2.93;2.70;;;20.80;63.80;;;;;;5030482;28;20193;-67
2022/07/20 00:22:36;;;;;;;3.40;2.47;;;20.70;63.50;;;;;;5056949;28;20225;-67
2022/07/20 00:25:02;;;;;;;3.00;2.70;;;20.70;63.70;;;;;;5061793;28;20217;-67
2022/07/20 00:27:28;;;;;;;2.93;2.57;;;20.70;63.80;;;;;;5042434;28;20229;-67
2022/07/20 00:29:53;;;;;;;4.57;2.63;;;20.70;63.90;;;;;;5071152;28;20209;-67
2022/07/20 00:32:19;;;;;;;3.20;2.53;;;20.60;63.90;;;;;;5027429;28;20190;-67
2022/07/20 00:34:45;;;;;;;2.90;2.70;;;20.60;63.90;;;;;;5038124;28;20193;-67
2022/07/20 00:37:10;;;;;;;3.87;2.70;;;20.50;64.30;;;;;;5043393;28;20194;-67
2022/07/20 00:39:36;;;;;;;6.23;3.20;;;20.50;64.20;;;;;;5055690;28;20248;-67
2022/07/20 00:42:02;;;;;;;2.50;2.30;;;20.50;64.00;;;;;;5037770;28;20197;-67
2022/07/20 00:44:27;;;;;;;2.67;2.47;;;20.50;64.20;;;;;;5034802;28;20206;-67
2022/07/20 00:46:55;;;;;;;5.20;2.57;;;20.50;64.10;;;;;;5053646;28;20190;-67
2022/07/20 00:49:21;;;;;;;5.87;2.80;;;20.40;64.20;;;;;;5036808;28;20198;-67
2022/07/20 00:51:48;;;;;;;3.83;2.60;;;20.40;64.00;;;;;;5055293;28;20213;-67
2022/07/20 00:54:14;;;;;;;3.77;2.90;;;20.40;64.20;;;;;;5038803;28;20194;-67
2022/07/20 00:56:40;;;;;;;2.60;2.30;;;20.30;64.40;;;;;;5054182;28;20186;-67
2022/07/20 00:59:09;;;;;;;3.47;2.77;;;20.30;64.50;;;;;;5082464;28;20259;-67
2022/07/20 01:01:35;;;;;;;2.63;2.43;;;20.30;64.30;;;;;;5058367;28;20223;-67
2022/07/20 01:04:01;;;;;;;2.73;2.47;;;20.30;64.40;;;;;;5045111;28;20244;-67
2022/07/20 01:06:28;;;;;;;2.93;2.57;;;20.30;64.40;;;;;;5019256;28;20219;-67
2022/07/20 01:08:53;;;;;;;2.73;2.20;;;20.30;64.50;;;;;;5037866;28;20222;-67
2022/07/20 01:11:20;;;;;;;3.67;2.63;;;20.30;64.60;;;;;;5065457;28;20190;-67
2022/07/20 01:13:46;;;;;;;2.60;2.40;;;20.30;64.60;;;;;;5021130;28;20194;-67
2022/07/20 01:16:12;;;;;;;2.60;2.40;;;20.20;64.70;;;;;;5049777;28;20715;-67
2022/07/20 01:18:38;;;;;;;3.73;2.83;;;20.20;64.80;;;;;;5047779;28;20194;-67
2022/07/20 01:21:06;;;;;;;3.00;2.50;;;20.20;64.90;;;;;;5039073;28;20197;-67
2022/07/20 01:23:32;;;;;;;2.87;2.40;;;20.20;64.90;;;;;;5053783;28;20187;-67
2022/07/20 01:25:58;;;;;;;3.20;2.70;;;20.20;64.80;;;;;;5059968;28;20198;-67
2022/07/20 01:28:24;;;;;;;2.53;2.33;;;20.20;64.90;;;;;;5037270;28;20231;-68
2022/07/20 01:30:50;;;;;;;3.17;2.70;;;20.10;64.90;;;;;;5058050;28;20296;-67
2022/07/20 01:33:17;;;;;;;2.83;2.63;;;20.10;64.90;;;;;;5054170;28;20282;-67
2022/07/20 01:35:42;;;;;;;3.13;2.67;;;20.10;65.00;;;;;;5049136;28;20205;-67
2022/07/20 01:38:08;;;;;;;4.30;2.57;;;20.10;65.10;;;;;;5036871;28;20198;-67
2022/07/20 01:40:34;;;;;;;2.97;2.73;;;20.00;64.90;;;;;;5040178;28;20194;-67
2022/07/20 01:43:00;;;;;;;3.07;2.77;;;20.00;65.00;;;;;;5036897;28;20194;-67
2022/07/20 01:45:25;;;;;;;4.27;2.40;;;20.00;65.00;;;;;;5034613;28;20756;-67
2022/07/20 01:47:51;;;;;;;3.37;2.73;;;20.00;65.00;;;;;;5043875;28;20195;-67
2022/07/20 01:50:17;;;;;;;2.43;2.23;;;20.00;65.10;;;;;;5058336;28;20214;-67
2022/07/20 01:52:42;;;;;;;3.07;2.73;;;20.00;65.20;;;;;;5053609;28;20206;-67
2022/07/20 01:55:09;;;;;;;3.60;2.90;;;20.00;65.40;;;;;;5059728;28;20193;-67
2022/07/20 01:57:35;;;;;;;4.00;2.90;;;19.90;65.40;;;;;;5033600;28;20209;-67
2022/07/20 02:00:04;;;;;;;5.23;2.70;;;19.90;65.50;;;;;;5040109;28;20244;-67
2022/07/20 02:02:29;;;;;;;3.00;2.70;;;19.90;65.50;;;;;;5053214;28;20195;-67
2022/07/20 02:04:55;;;;;;;5.17;3.03;;;19.90;65.20;;;;;;5053336;28;20214;-67
2022/07/20 02:07:20;;;;;;;3.93;2.80;;;19.70;65.60;;;;;;5033902;28;20203;-67
2022/07/20 02:09:46;;;;;;;2.70;2.40;;;19.70;65.70;;;;;;5036372;28;20310;-67
2022/07/20 02:12:12;;;;;;;4.80;2.50;;;19.80;65.80;;;;;;5035407;28;20190;-67
2022/07/20 02:14:37;;;;;;;2.83;2.57;;;19.80;65.70;;;;;;5019865;28;20248;-67
2022/07/20 02:17:03;;;;;;;2.80;2.50;;;19.80;65.50;;;;;;5052411;28;20190;-67
2022/07/20 02:19:28;;;;;;;3.37;2.77;;;19.80;65.60;;;;;;5028617;28;20203;-67
2022/07/20 02:21:54;;;;;;;3.50;2.53;;;19.80;65.70;;;;;;5015519;28;20228;-67
2022/07/20 02:24:19;;;;;;;3.93;2.50;;;19.80;65.60;;;;;;5050654;28;20247;-67
2022/07/20 02:26:45;;;;;;;3.33;2.53;;;19.80;65.70;;;;;;5011504;28;20241;-67
2022/07/20 02:29:11;;;;;;;3.83;2.50;;;19.70;65.80;;;;;;5023674;28;20201;-67
2022/07/20 02:31:36;;;;;;;6.43;2.60;;;19.70;66.00;;;;;;5053174;28;20198;-67
2022/07/20 02:34:02;;;;;;;3.00;2.60;;;19.70;66.10;;;;;;5056940;28;20193;-67
2022/07/20 02:36:27;;;;;;;3.53;3.00;;;19.70;66.20;;;;;;5053104;28;20194;-67
2022/07/20 02:38:53;;;;;;;3.50;2.93;;;19.60;66.30;;;;;;5050918;28;20198;-67
2022/07/20 02:41:19;;;;;;;2.83;2.53;;;19.60;66.40;;;;;;5031098;28;20245;-67
2022/07/20 02:43:44;;;;;;;3.07;2.70;;;19.60;66.20;;;;;;5036627;28;20186;-67
2022/07/20 02:46:10;;;;;;;2.93;2.63;;;19.60;66.30;;;;;;5028196;28;20273;-67
2022/07/20 02:48:36;;;;;;;5.97;3.17;;;19.60;66.10;;;;;;5034439;28;20205;-67
2022/07/20 02:51:02;;;;;;;3.23;2.93;;;19.60;66.10;;;;;;5032138;28;20187;-67
2022/07/20 02:53:27;;;;;;;8.47;3.10;;;19.60;66.20;;;;;;5015675;28;20195;-67
2022/07/20 02:55:53;;;;;;;2.80;2.60;;;19.60;66.30;;;;;;5044824;28;20281;-67
2022/07/20 02:58:19;;;;;;;3.83;2.63;;;19.60;66.30;;;;;;5062135;28;20241;-67
2022/07/20 03:00:44;;;;;;;4.93;2.70;;;19.50;66.30;;;;;;5052177;28;20194;-67
2022/07/20 03:03:10;;;;;;;5.37;2.90;;;19.50;66.40;;;;;;5037607;28;20251;-67
2022/07/20 03:05:36;;;;;;;2.83;2.53;;;19.50;66.30;;;;;;5054518;28;20301;-67
2022/07/20 03:08:03;;;;;;;2.63;2.43;;;19.50;66.10;;;;;;5037168;28;20186;-67
2022/07/20 03:10:29;;;;;;;2.97;2.73;;;19.50;66.20;;;;;;5033348;28;20261;-67
2022/07/20 03:12:54;;;;;;;2.87;2.67;;;19.40;66.20;;;;;;5002846;28;20215;-67
2022/07/20 03:15:20;;;;;;;3.20;2.53;;;19.40;66.60;;;;;;4997768;28;20222;-67
2022/07/20 03:17:49;;;;;;;3.80;2.60;;;19.40;66.60;;;;;;5002910;28;20187;-67
2022/07/20 03:20:21;;;;;;;3.87;3.20;;;19.40;66.70;;;;;;5052635;28;20230;-67
2022/07/20 03:22:46;;;;;;;3.23;2.93;;;19.40;66.40;;;;;;5052741;28;20209;-67
2022/07/20 03:25:12;;;;;;;2.73;2.50;;;19.40;66.60;;;;;;5021473;28;20211;-67
2022/07/20 03:27:38;;;;;;;4.20;2.60;;;19.30;66.40;;;;;;5037402;28;20187;-67
2022/07/20 03:30:05;;;;;;;3.17;2.87;;;19.30;66.70;;;;;;5037377;28;20186;-67
2022/07/20 03:32:31;;;;;;;3.20;2.80;;;19.30;66.60;;;;;;5004262;28;20192;-67
2022/07/20 03:34:57;;;;;;;3.47;3.17;;;19.30;66.90;;;;;;5000979;28;20205;-67
2022/07/20 03:37:22;;;;;;;3.43;2.80;;;19.40;66.80;;;;;;5015542;28;20202;-67
2022/07/20 03:39:48;;;;;;;8.57;3.07;;;19.40;66.80;;;;;;5008690;28;20282;-67
2022/07/20 03:42:13;;;;;;;3.93;3.43;;;19.30;66.70;;;;;;5012950;28;20191;-67
2022/07/20 03:44:39;;;;;;;3.27;2.97;;;19.30;66.90;;;;;;4983560;28;20220;-67
2022/07/20 03:47:05;;;;;;;3.37;2.80;;;19.30;67.00;;;;;;4997695;28;20195;-67
2022/07/20 03:49:30;;;;;;;4.60;3.13;;;19.30;66.90;;;;;;5011468;28;20282;-67
2022/07/20 03:51:56;;;;;;;3.33;3.03;;;19.30;67.00;;;;;;5005666;28;20202;-67
2022/07/20 03:54:21;;;;;;;3.33;2.77;;;19.30;67.20;;;;;;5031164;28;20223;-67
2022/07/20 03:56:47;;;;;;;5.43;3.60;;;19.30;67.20;;;;;;5002242;28;20206;-67
2022/07/20 03:59:13;;;;;;;3.70;2.83;;;19.30;67.10;;;;;;5008610;28;20196;-67
2022/07/20 04:01:39;;;;;;;5.37;3.30;;;19.20;67.20;;;;;;4994430;28;20206;-67
2022/07/20 04:04:05;;;;;;;3.70;3.03;;;19.20;67.30;;;;;;5031435;28;20257;-67
2022/07/20 04:06:31;;;;;;;3.40;3.10;;;19.30;67.20;;;;;;4986848;28;20211;-67
2022/07/20 04:08:56;;;;;;;4.43;3.20;;;19.20;67.30;;;;;;5024814;28;20226;-67
2022/07/20 04:11:22;;;;;;;3.40;3.00;;;19.30;67.40;;;;;;5047367;28;20205;-67
2022/07/20 04:13:48;;;;;;;4.13;3.07;;;19.20;67.40;;;;;;5036260;28;20218;-67
2022/07/20 04:16:13;;;;;;;3.30;2.97;;;19.20;67.70;;;;;;5055179;28;20202;-67
2022/07/20 04:18:39;;;;;;;3.27;2.97;;;19.20;67.60;;;;;;5036928;28;20225;-67
2022/07/20 04:21:05;;;;;;;3.40;3.10;;;19.20;68.00;;;;;;5038474;28;20195;-67
2022/07/20 04:23:31;;;;;;;5.30;3.03;;;19.20;68.10;;;;;;5048941;28;20200;-67
2022/07/20 04:25:56;;;;;;;4.70;3.17;;;19.20;68.20;;;;;;5038292;28;20240;-67
2022/07/20 04:28:22;;;;;;;3.70;3.30;;;19.20;68.10;;;;;;5048587;28;20194;-67
2022/07/20 04:30:48;;;;;;;7.77;3.30;;;19.30;68.20;;;;;;5054910;28;20191;-67
2022/07/20 04:33:13;;;;;;;5.13;3.30;;;19.30;68.30;;;;;;5034073;28;20196;-67
2022/07/20 04:35:39;;;;;;;5.20;3.27;;;19.30;68.40;;;;;;5021764;28;20205;-67
2022/07/20 04:38:04;;;;;;;4.43;3.37;;;19.30;68.60;;;;;;5032551;28;20198;-67
2022/07/20 04:40:30;;;;;;;5.73;3.17;;;19.30;68.40;;;;;;5049650;28;20249;-67
2022/07/20 04:42:56;;;;;;;3.80;3.40;;;19.30;68.30;;;;;;5027229;28;20336;-67
2022/07/20 04:45:22;;;;;;;6.27;3.57;;;19.30;68.70;;;;;;5021800;28;20206;-67
2022/07/20 04:47:47;;;;;;;4.83;3.73;;;19.30;69.00;;;;;;5043638;28;20255;-67
2022/07/20 04:50:13;;;;;;;4.93;3.53;;;19.30;69.00;;;;;;5039507;28;20186;-67
2022/07/20 04:52:40;;;;;;;4.63;3.80;;;19.30;69.00;;;;;;5058140;28;20251;-67
2022/07/20 04:55:07;;;;;;;5.73;3.63;;;19.30;69.20;;;;;;5057900;28;20187;-67
2022/07/20 04:57:32;;;;;;;4.97;3.50;;;19.30;69.10;;;;;;5071154;28;20273;-67
2022/07/20 04:59:58;;;;;;;3.53;3.23;;;19.30;69.20;;;;;;5043728;28;20273;-67
2022/07/20 05:02:24;;;;;;;4.20;3.20;;;19.30;68.90;;;;;;5039858;28;20202;-67
2022/07/20 05:04:50;;;;;;;3.60;3.30;;;19.40;68.70;;;;;;5064379;28;20258;-67
2022/07/20 05:07:15;;;;;;;4.07;3.60;;;19.40;68.90;;;;;;5056647;28;20201;-67
2022/07/20 05:09:41;;;;;;;3.80;3.50;;;19.40;68.60;;;;;;5052957;28;20234;-67
2022/07/20 05:12:08;;;;;;;4.13;3.73;;;19.40;68.20;;;;;;5054304;28;20194;-67
2022/07/20 05:14:34;;;;;;;4.73;3.87;;;19.40;68.50;;;;;;5052342;28;20187;-67
2022/07/20 05:16:59;;;;;;;3.87;3.30;;;19.50;68.60;;;;;;5054026;28;20198;-67
2022/07/20 05:19:25;;;;;;;3.83;3.53;;;19.50;68.60;;;;;;5069413;28;20198;-67
2022/07/20 05:21:51;;;;;;;4.30;3.90;;;19.50;68.70;;;;;;5037213;28;20205;-67
2022/07/20 05:24:16;;;;;;;4.33;3.93;;;19.50;68.60;;;;;;5037218;28;20211;-67
2022/07/20 05:26:42;;;;;;;7.93;3.97;;;19.50;68.60;;;;;;5025903;28;20222;-67
2022/07/20 05:29:07;;;;;;;4.10;3.60;;;19.60;68.70;;;;;;5011099;28;20194;-67
2022/07/20 05:31:33;;;;;;;7.50;3.70;;;19.60;68.90;;;;;;5030298;28;20217;-67
2022/07/20 05:33:59;;;;;;;4.57;3.63;;;19.50;68.50;;;;;;5044369;28;20313;-67
2022/07/20 05:36:25;;;;;;;3.60;3.30;;;19.50;68.60;;;;;;5049205;28;20214;-67
2022/07/20 05:38:51;;;;;;;5.23;4.20;;;19.60;68.60;;;;;;5032204;28;20285;-67
2022/07/20 05:41:16;;;;;;;4.30;3.90;;;19.60;68.50;;;;;;5045140;28;20192;-67
2022/07/20 05:43:42;;;;;;;4.73;4.30;;;19.60;68.30;;;;;;5031108;28;20191;-67
2022/07/20 05:46:07;;;;;;;3.97;3.60;;;19.60;68.50;;;;;;5048652;28;20183;-67
2022/07/20 05:48:33;;;;;;;5.63;4.20;;;19.70;68.60;;;;;;5032786;28;20198;-67
2022/07/20 05:50:59;;;;;;;4.00;3.70;;;19.70;68.70;;;;;;5024927;28;20187;-67
2022/07/20 05:53:25;;;;;;;6.30;3.80;;;19.70;68.80;;;;;;5024571;28;20190;-67
2022/07/20 05:55:50;;;;;;;4.07;3.57;;;19.70;68.80;;;;;;5045318;28;20218;-67
2022/07/20 05:58:16;;;;;;;3.90;3.53;;;19.80;68.70;;;;;;5031514;28;20190;-67
2022/07/20 06:00:42;;;;;;;4.47;3.80;;;19.70;68.60;;;;;;5033830;28;20196;-67
2022/07/20 06:03:08;;;;;;;4.50;4.10;;;19.80;68.80;;;;;;5029270;28;20183;-67
2022/07/20 06:05:34;;;;;;;4.00;3.70;;;19.80;68.80;;;;;;5047663;28;20252;-67
2022/07/20 06:08:01;;;;;;;4.63;4.10;;;19.80;68.70;;;;;;5019270;28;20225;-67
2022/07/20 06:10:28;;;;;;;5.87;3.73;;;19.70;69.00;;;;;;5042313;28;20262;-67
2022/07/20 06:12:55;;;;;;;5.13;3.97;;;19.80;68.90;;;;;;5038550;28;20179;-67
2022/07/20 06:15:22;;;;;;;5.27;4.30;;;19.80;69.00;;;;;;5036355;28;20192;-67
2022/07/20 06:17:48;;;;;;;6.47;4.00;;;19.80;69.20;;;;;;5046146;28;20182;-67
2022/07/20 06:20:15;;;;;;;6.13;4.00;;;19.80;69.40;;;;;;5045081;28;20240;-68
2022/07/20 06:22:42;;;;;;;5.93;4.10;;;19.90;69.50;;;;;;5040377;28;20187;-67
2022/07/20 06:25:09;;;;;;;4.40;3.70;;;19.90;69.50;;;;;;5037599;28;20241;-67
2022/07/20 06:27:35;;;;;;;4.40;4.00;;;19.90;69.80;;;;;;5053493;28;20194;-66
2022/07/20 06:30:02;;;;;;;4.60;4.20;;;20.00;70.00;;;;;;5083382;28;20183;-65
2022/07/20 06:32:28;;;;;;;7.70;4.53;;;20.00;69.70;;;;;;5036282;28;20193;-65
2022/07/20 06:34:53;;;;;;;7.20;4.20;;;20.00;69.50;;;;;;5033120;28;20191;-65
2022/07/20 06:37:19;;;;;;;5.93;4.17;;;20.10;69.90;;;;;;5053570;28;20189;-65
2022/07/20 06:39:46;;;;;;;6.80;4.80;;;20.10;70.10;;;;;;5047947;28;20191;-65
2022/07/20 06:42:11;;;;;;;7.07;3.80;;;20.10;69.90;;;;;;5029777;28;20190;-65
2022/07/20 06:44:37;;;;;;;4.97;3.87;;;20.10;70.20;;;;;;5035532;28;20210;-65
2022/07/20 06:47:04;;;;;;;3.90;3.60;;;20.20;70.90;;;;;;5033363;28;20182;-65
2022/07/20 06:49:29;;;;;;;7.63;4.23;;;20.20;70.90;;;;;;5050671;28;20268;-65
2022/07/20 06:51:55;;;;;;;7.90;4.13;;;20.30;71.80;;;;;;5027130;28;20270;-65
2022/07/20 06:54:21;;;;;;;5.43;4.23;;;20.30;71.40;;;;;;5035604;28;20191;-65
2022/07/20 06:56:47;;;;;;;7.53;4.37;;;20.30;71.60;;;;;;5050115;28;20289;-65
2022/07/20 06:59:13;;;;;;;4.70;4.23;;;20.30;70.90;;;;;;5019244;28;20194;-66
2022/07/20 07:01:38;;;;;;;5.10;4.47;;;20.30;71.60;;;;;;5043705;28;20190;-66
2022/07/20 07:04:05;;;;;;;5.73;3.80;;;20.30;71.80;;;;;;5043732;28;20211;-66
2022/07/20 07:06:32;;;;;;;4.50;4.10;;;20.30;71.70;;;;;;5044384;28;20182;-66
2022/07/20 07:08:59;;;;;;;4.57;3.63;;;20.40;71.90;;;;;;5026192;28;20227;-66
2022/07/20 07:11:25;;;;;;;5.10;4.20;;;20.40;70.80;;;;;;5060471;28;20183;-66
2022/07/20 07:13:51;;;;;;;4.47;3.90;;;20.40;70.60;;;;;;5069668;28;20194;-65
2022/07/20 07:16:16;;;;;;;4.83;4.30;;;20.50;70.20;;;;;;5048104;28;20179;-65
2022/07/20 07:18:42;;;;;;;5.40;3.70;;;20.50;70.20;;;;;;5040602;28;20252;-65
2022/07/20 07:21:08;;;;;;;4.27;3.90;;;20.50;70.00;;;;;;5055132;28;20178;-65
2022/07/20 07:23:33;;;;;;;4.30;3.80;;;20.60;70.30;;;;;;5021889;28;20194;-66
2022/07/20 07:25:59;;;;;;;5.30;3.73;;;20.60;69.20;;;;;;5066151;28;20226;-66
2022/07/20 07:28:25;;;;;;;4.37;3.97;;;20.70;69.70;;;;;;5034927;28;20198;-63
2022/07/20 07:30:50;;;;;;;5.10;3.97;;;20.70;69.50;;;;;;5031089;28;20269;-67
2022/07/20 07:33:17;;;;;;;6.23;3.93;;;20.70;69.80;;;;;;5020550;28;20194;-67
2022/07/20 07:35:43;;;;;;;4.80;3.40;;;20.70;69.70;;;;;;5027512;28;20201;-67
2022/07/20 07:38:09;;;;;;;4.97;4.00;;;20.80;69.60;;;;;;5021974;28;20186;-67
2022/07/20 07:40:35;;;;;;;8.00;5.30;;;20.80;69.30;;;;;;5061471;28;20289;-67
2022/07/20 07:43:01;;;;;;;4.87;4.07;;;20.80;70.50;;;;;;5068844;28;20269;-67
2022/07/20 07:45:27;;;;;;;8.07;5.10;;;20.80;69.50;;;;;;5036908;28;20273;-67
2022/07/20 07:47:52;;;;;;;4.70;4.20;;;20.80;68.80;;;;;;5033879;28;20179;-67
2022/07/20 07:50:18;;;;;;;5.97;3.60;;;20.90;69.30;;;;;;5039476;28;20191;-67
2022/07/20 07:52:44;;;;;;;6.83;3.40;;;20.90;69.10;;;;;;5052899;28;20561;-67
2022/07/20 07:55:10;;;;;;;3.73;3.33;;;21.00;69.20;;;;;;5039219;28;20194;-67
2022/07/20 07:57:36;;;;;;;4.57;3.33;;;21.00;68.10;;;;;;5037592;28;20186;-67
2022/07/20 08:00:04;;;;;;;3.93;2.67;;;21.00;64.70;;;;;;5054693;28;20201;-67
2022/07/20 08:02:30;;;;;;;4.37;2.33;;;21.20;64.30;;;;;;5027516;28;20231;-67
2022/07/20 08:04:55;;;;;;;3.73;2.60;;;21.20;64.90;;;;;;5043616;28;20215;-67
2022/07/20 08:07:24;;;;;;;2.77;2.43;;;21.20;63.40;;;;;;5015693;28;20191;-67
2022/07/20 08:09:49;;;;;;;3.33;2.70;;;21.30;63.00;;;;;;5043915;28;20321;-67
2022/07/20 08:12:15;;;;;;;5.53;2.80;;;21.30;63.20;;;;;;5021825;28;20281;-67
2022/07/20 08:14:41;;;;;;;2.90;2.70;;;21.40;62.60;;;;;;5054703;28;20194;-67
2022/07/20 08:17:06;;;;;;;3.50;2.73;;;21.40;63.60;;;;;;5033796;28;20187;-67
2022/07/20 08:19:32;;;;;;;4.67;3.17;;;21.50;63.80;;;;;;5041222;28;20198;-67
2022/07/20 08:21:57;;;;;;;2.87;2.53;;;21.50;63.40;;;;;;5036446;28;20197;-67
2022/07/20 08:24:23;;;;;;;3.30;2.80;;;21.50;62.30;;;;;;5052919;28;20211;-67
2022/07/20 08:26:49;;;;;;;5.30;2.93;;;21.50;63.20;;;;;;5058447;28;20190;-67
2022/07/20 08:29:14;;;;;;;4.43;2.63;;;21.60;63.90;;;;;;5044503;28;20189;-67
2022/07/20 08:31:40;;;;;;;4.40;2.80;;;21.70;61.50;;;;;;5047384;28;20190;-67
2022/07/20 08:34:06;;;;;;;4.70;2.50;;;21.80;61.90;;;;;;5053809;28;20201;-67
2022/07/20 08:36:31;;;;;;;3.77;2.70;;;21.80;61.10;;;;;;5054310;28;20228;-67
2022/07/20 08:38:57;;;;;;;3.43;2.57;;;21.80;61.00;;;;;;5036730;28;20229;-67
2022/07/20 08:41:25;;;;;;;5.70;2.53;;;21.90;58.40;;;;;;5032549;28;20224;-67
2022/07/20 08:43:50;;;;;;;4.97;2.37;;;22.00;60.50;;;;;;5061367;28;20193;-67
2022/07/20 08:46:17;;;;;;;5.50;2.40;;;22.00;59.50;;;;;;5050943;28;20180;-67
2022/07/20 08:48:43;;;;;;;3.03;2.30;;;22.10;58.40;;;;;;5053386;28;20216;-67
2022/07/20 08:51:09;;;;;;;4.27;2.40;;;22.10;57.50;;;;;;5060415;28;20194;-67
2022/07/20 08:53:35;;;;;;;3.50;2.47;;;22.20;59.30;;;;;;5035606;28;20193;-67
2022/07/20 08:56:00;;;;;;;4.33;2.70;;;22.20;58.10;;;;;;5038976;28;20187;-67
2022/07/20 08:58:26;;;;;;;4.47;2.47;;;22.30;57.50;;;;;;5033333;28;20202;-67
2022/07/20 09:00:52;;;;;;;2.40;2.17;;;22.50;54.00;;;;;;5046773;28;20198;-67
2022/07/20 09:03:18;;;;;;;3.33;1.97;;;22.70;52.40;;;;;;5035018;28;20199;-67
2022/07/20 09:05:44;;;;;;;3.37;2.10;;;22.80;50.60;;;;;;5054276;28;20251;-67
2022/07/20 09:08:13;;;;;;;4.33;2.10;;;22.90;50.40;;;;;;5042908;28;20190;-67
2022/07/20 09:10:41;;;;;;;4.97;2.23;;;22.90;51.00;;;;;;5052658;28;20292;-67
2022/07/20 09:13:12;;;;;;;6.63;2.03;;;23.00;50.50;;;;;;5049495;28;20194;-67
2022/07/20 09:15:43;;;;;;;2.30;2.10;;;23.00;52.50;;;;;;5036162;28;20191;-67
2022/07/20 09:18:20;;;;;;;3.60;2.23;;;23.00;52.80;;;;;;5054803;28;20261;-67
2022/07/20 09:20:57;;;;;;;4.40;3.07;;;23.10;51.30;;;;;;5047141;28;20210;-67
2022/07/20 09:23:33;;;;;;;4.70;2.40;;;23.10;52.20;;;;;;5052641;28;20200;-67
2022/07/20 09:26:04;;;;;;;3.30;2.30;;;23.10;53.00;;;;;;5050145;28;20217;-67
2022/07/20 09:28:53;;;;;;;4.77;2.17;;;23.20;54.70;;;;;;5054372;28;20182;-67
2022/07/20 09:31:29;;;;;;;2.30;2.10;;;23.30;54.70;;;;;;5050384;28;20187;-67
2022/07/20 09:33:55;;;;;;;3.33;2.10;;;23.30;53.20;;;;;;5054628;28;20189;-67
2022/07/20 09:36:23;;;;;;;5.10;2.27;;;23.30;50.50;;;;;;5051975;28;20190;-67
2022/07/20 09:38:49;;;;;;;2.77;1.70;;;23.30;50.60;;;;;;5054300;28;20197;-67
2022/07/20 09:41:27;;;;;;;6.30;2.40;;;23.40;50.70;;;;;;5035058;28;20268;-67
2022/07/20 09:43:53;;;;;;;3.83;1.90;;;23.50;49.70;;;;;;5050264;28;20193;-67
2022/07/20 09:46:21;;;;;;;3.43;1.80;;;23.60;50.10;;;;;;5054091;28;20182;-67
2022/07/20 09:48:48;;;;;;;2.87;1.83;;;23.70;49.60;;;;;;5033700;28;20187;-67
2022/07/20 09:51:35;;;;;;;1.93;1.80;;;23.70;52.40;;;;;;5052752;28;20190;-67
2022/07/20 09:54:13;;;;;;;2.13;1.83;;;23.70;52.70;;;;;;5046245;28;20193;-67
2022/07/20 09:56:44;;;;;;;3.83;1.77;;;23.70;52.30;;;;;;5059069;28;20189;-67
2022/07/20 09:59:11;;;;;;;2.63;2.03;;;23.80;51.00;;;;;;5051718;28;20190;-67
2022/07/20 10:01:39;;;;;;;3.80;2.17;;;23.80;51.30;;;;;;5034160;28;20201;-67
2022/07/20 10:04:07;;;;;;;1.90;1.70;;;23.80;48.20;;;;;;5051673;28;20187;-67
2022/07/20 10:06:35;;;;;;;5.00;1.93;;;23.80;46.40;;;;;;5030103;28;20199;-67
2022/07/20 10:09:01;;;;;;;3.70;1.80;;;23.90;48.00;;;;;;5029688;28;20242;-67
2022/07/20 10:11:27;;;;;;;2.13;1.60;;;24.00;47.10;;;;;;5034419;28;20198;-67
2022/07/20 10:13:56;;;;;;;2.20;1.73;;;24.10;49.00;;;;;;5033694;28;20186;-67
2022/07/20 10:16:34;;;;;;;2.07;1.77;;;24.10;48.20;;;;;;5039391;28;20186;-67
2022/07/20 10:19:00;;;;;;;3.27;1.90;;;24.20;47.90;;;;;;5056194;28;20182;-67
2022/07/20 10:21:38;;;;;;;5.17;1.73;;;24.20;45.10;;;;;;5031192;28;20194;-67
2022/07/20 10:24:30;;;;;;;4.43;1.70;;;24.20;46.70;;;;;;5063039;28;20181;-67
2022/07/20 10:27:08;;;;;;;2.13;1.60;;;24.20;47.60;;;;;;5051972;28;20174;-67
2022/07/20 10:29:48;;;;;;;4.40;1.63;;;24.30;48.60;;;;;;5061824;28;20194;-67
2022/07/20 10:32:28;;;;;;;4.53;1.60;;;24.30;45.00;;;;;;5041396;28;20232;-67
2022/07/20 10:34:56;;;;;;;3.13;1.50;;;24.30;47.20;;;;;;5062587;28;20220;-67
2022/07/20 10:37:37;;;;;;;2.40;1.90;;;24.30;47.60;;;;;;5051139;28;20190;-67
2022/07/20 10:40:02;;;;;;;2.33;1.43;;;24.40;46.80;;;;;;5064875;28;20190;-67
2022/07/20 10:42:37;;;;;;;2.37;1.90;;;24.30;46.50;;;;;;5052080;28;20236;-67
2022/07/20 10:45:23;;;;;;;5.20;2.10;;;24.40;45.90;;;;;;5062338;28;20209;-67
2022/07/20 10:48:13;;;;;;;2.50;1.57;;;24.50;45.00;;;;;;5047135;28;20178;-67
2022/07/20 10:50:42;;;;;;;2.10;1.90;;;24.50;44.00;;;;;;5060388;28;20187;-67
2022/07/20 10:53:11;;;;;;;3.57;1.70;;;24.60;44.80;;;;;;5034367;28;20190;-67
2022/07/20 10:55:36;;;;;;;4.40;2.00;;;24.70;44.10;;;;;;5053311;28;20190;-67
2022/07/20 10:58:05;;;;;;;3.20;1.70;;;24.80;42.40;;;;;;5052119;28;20188;-67
2022/07/20 11:00:39;;;;;;;1.93;1.43;;;24.90;42.90;;;;;;5048849;28;20198;-67
2022/07/20 11:03:25;;;;;;;2.17;1.37;;;25.20;39.90;;;;;;5060075;28;20184;-67
2022/07/20 11:06:10;;;;;;;2.03;1.70;;;25.20;41.80;;;;;;5052531;28;20209;-67
2022/07/20 11:08:43;;;;;;;1.83;1.40;;;25.20;43.60;;;;;;5043173;28;20221;-67
2022/07/20 11:11:17;;;;;;;1.83;1.40;;;25.30;44.40;;;;;;5014382;28;20207;-67
2022/07/20 11:13:43;;;;;;;3.23;1.50;;;25.30;41.90;;;;;;5022263;28;20178;-67
2022/07/20 11:16:08;;;;;;;1.63;1.50;;;25.30;39.40;;;;;;5014117;28;20194;-67
2022/07/20 11:18:35;;;;;;;3.87;1.33;;;25.30;40.50;;;;;;4989092;28;20285;-67
2022/07/20 11:21:09;;;;;;;1.43;1.33;;;25.40;41.20;;;;;;4997398;28;20211;-67
2022/07/20 11:24:06;;;;;;;3.80;1.50;;;25.50;42.20;;;;;;4991971;28;20261;-67
2022/07/20 11:26:31;;;;;;;3.40;1.30;;;25.50;40.80;;;;;;4983491;28;20199;-67
2022/07/20 11:28:58;;;;;;;1.60;1.50;;;25.60;41.80;;;;;;5017896;28;20194;-67
2022/07/20 11:31:27;;;;;;;1.57;1.47;;;25.70;41.00;;;;;;5017668;28;20179;-67
2022/07/20 11:33:56;;;;;;;3.77;1.60;;;25.70;41.20;;;;;;5023882;28;20206;-67
2022/07/20 11:36:28;;;;;;;1.73;1.50;;;25.80;43.50;;;;;;5023948;28;20262;-67
2022/07/20 11:39:02;;;;;;;1.30;1.20;;;25.80;42.40;;;;;;5035491;28;20190;-67
2022/07/20 11:41:32;;;;;;;2.07;1.30;;;25.90;45.10;;;;;;5022982;28;20186;-67
2022/07/20 11:44:27;;;;;;;3.70;1.80;;;25.90;41.00;;;;;;5046829;28;20183;-67
2022/07/20 11:46:53;;;;;;;2.80;1.87;;;26.10;40.50;;;;;;5022002;28;20199;-67
2022/07/20 11:49:20;;;;;;;1.93;1.60;;;26.20;45.10;;;;;;4997562;28;20194;-67
2022/07/20 11:51:58;;;;;;;2.30;1.57;;;26.30;38.40;;;;;;5019522;28;20179;-67
2022/07/20 11:54:26;;;;;;;2.70;1.47;;;26.40;40.00;;;;;;5015169;28;20197;-67
2022/07/20 11:56:52;;;;;;;2.73;1.90;;;26.40;38.30;;;;;;5037202;28;20306;-67
2022/07/20 11:59:19;;;;;;;3.83;1.80;;;26.50;37.30;;;;;;5004802;28;20198;-67
2022/07/20 12:01:45;;;;;;;2.10;1.90;;;26.70;37.00;;;;;;5025615;28;20191;-67
2022/07/20 12:04:14;;;;;;;2.20;2.00;;;26.80;42.30;;;;;;5000020;28;20191;-67
2022/07/20 12:06:41;;;;;;;2.13;1.63;;;26.80;43.40;;;;;;5032330;28;20187;-67
2022/07/20 12:09:13;;;;;;;2.30;1.70;;;26.90;41.50;;;;;;5027942;28;20248;-67
2022/07/20 12:11:59;;;;;;;3.17;1.90;;;26.90;40.30;;;;;;5070639;28;20190;-67
2022/07/20 12:14:42;;;;;;;1.67;1.53;;;27.10;42.00;;;;;;5060427;28;20351;-67
2022/07/20 12:17:25;;;;;;;3.30;1.70;;;27.20;42.60;;;;;;5064054;28;20187;-67
2022/07/20 12:19:53;;;;;;;5.33;2.00;;;27.50;42.10;;;;;;5055656;28;20179;-67
2022/07/20 12:22:28;;;;;;;2.27;1.40;;;27.70;42.10;;;;;;5060302;28;20284;-67
2022/07/20 12:24:59;;;;;;;3.13;1.90;;;27.90;39.80;;;;;;5045740;28;20236;-67
2022/07/20 12:27:27;;;;;;;2.00;1.80;;;28.30;38.60;;;;;;5045695;28;20216;-67
2022/07/20 12:29:54;;;;;;;2.57;2.37;;;28.60;37.70;;;;;;5059455;28;20179;-67
2022/07/20 12:32:34;;;;;;;3.50;2.23;;;28.80;38.00;;;;;;5042422;28;20210;-67
2022/07/20 12:35:06;;;;;;;2.83;2.23;;;29.10;41.30;;;;;;5051694;28;20190;-67
2022/07/20 12:37:51;;;;;;;2.53;1.83;;;29.20;42.00;;;;;;5041939;28;20197;-67
2022/07/20 12:40:42;;;;;;;2.97;1.90;;;29.50;42.30;;;;;;5043497;28;20281;-67
2022/07/20 12:43:29;;;;;;;3.80;1.77;;;29.60;39.00;;;;;;5041030;28;20187;-67
2022/07/20 12:46:01;;;;;;;4.10;2.00;;;30.00;34.70;;;;;;5052614;28;20265;-67
2022/07/20 12:48:28;;;;;;;2.73;1.70;;;30.00;35.40;;;;;;5060867;28;20174;-67
2022/07/20 12:50:53;;;;;;;4.50;1.90;;;30.10;37.00;;;;;;5063473;28;20189;-67
2022/07/20 12:53:19;;;;;;;2.67;2.00;;;30.20;36.80;;;;;;5039578;28;20187;-67